Terminal Aerodrome Forecast
Issued by NWS Boston, MA

Home | Current Version | Previous Version | Text Only | Print | Product List | Glossary On
Versions: 1 2 3 4 5 6 7 8 9 10 11 12 13 14 15 16 17 18 19 20 21 22 23 24 25 26 27 28 29 30
000
FTUS41 KBOX 302320
TAFORH
TAF
KORH 302320Z 0100/0124 21007KT P6SM SCT050
     FM010400 22006KT P6SM BKN050
     FM011400 19004KT P6SM VCSH OVC050
     FM011800 16006KT 6SM -RA OVC050
     FM012200 12005KT 5SM -RA OVC050=

USA.gov is the U.S. government's official web portal to all federal, state and local government web resources and services.